Time;durP1;ratioP1;P1;durP2;ratioP2;P2;SDS_P1;SDS_P2;PMS_P1;PMS_P2;Temp;Humidity;BMP_temperature;BMP_pressure;BME280_temperature;BME280_humidity;BME280_pressure;Samples;Min_cycle;Max_cycle;Signal;HPM_P1;HPM_P2
2022/01/28 00:00:28;;;;;;;13.20;3.30;;;4.90;99.90;;;;;;5060111;28;20033;-64
2022/01/28 00:05:22;;;;;;;19.65;3.92;;;5.00;99.90;;;;;;5077832;28;20045;-63
2022/01/28 00:07:51;;;;;;;14.63;2.92;;;5.00;99.90;;;;;;5076903;28;20093;-63
2022/01/28 00:10:18;;;;;;;20.80;3.28;;;4.80;99.90;;;;;;5078114;28;20051;-63
2022/01/28 00:13:30;;;;;;;13.82;2.80;;;;;;;;;;5078290;28;20055;-64
2022/01/28 00:18:36;;;;;;;13.10;2.97;;;4.90;99.90;;;;;;5060532;28;20048;-63
2022/01/28 00:21:08;;;;;;;21.08;4.50;;;4.90;99.90;;;;;;5077057;28;20106;-63
2022/01/28 00:39:46;;;;;;;17.88;3.30;;;5.00;99.90;;;;;;5060471;28;20055;-63
2022/01/28 00:42:12;;;;;;;16.30;2.80;;;5.00;99.90;;;;;;5077448;28;20041;-62
2022/01/28 00:44:38;;;;;;;18.73;4.35;;;;;;;;;;5058968;28;20457;-62
2022/01/28 00:47:04;;;;;;;19.15;3.15;;;5.30;99.90;;;;;;5059956;28;20116;-64
2022/01/28 00:49:30;;;;;;;17.08;3.53;;;5.10;99.90;;;;;;5059112;28;20036;-64
2022/01/28 00:51:56;;;;;;;30.48;4.40;;;5.20;99.90;;;;;;5058809;28;20046;-63
2022/01/28 00:54:23;;;;;;;16.40;3.88;;;5.00;99.90;;;;;;5059019;28;20044;-64
2022/01/28 00:56:49;;;;;;;22.75;4.22;;;5.10;99.90;;;;;;5076584;28;20051;-64
2022/01/28 00:59:15;;;;;;;17.55;4.15;;;5.10;99.90;;;;;;5058530;28;20036;-64
2022/01/28 01:01:41;;;;;;;14.95;2.80;;;5.10;99.90;;;;;;5074887;28;20043;-63
2022/01/28 01:04:07;;;;;;;14.40;3.42;;;5.40;99.90;;;;;;5076722;28;20032;-64
2022/01/28 01:06:33;;;;;;;18.83;3.15;;;;;;;;;;5058623;28;20037;-64
2022/01/28 01:08:59;;;;;;;17.90;3.40;;;5.30;99.90;;;;;;5058454;28;20040;-63
2022/01/28 01:11:26;;;;;;;23.10;3.10;;;5.30;99.90;;;;;;5075721;28;20498;-63
2022/01/28 01:13:52;;;;;;;13.50;4.10;;;5.40;99.90;;;;;;5054575;28;20455;-63
2022/01/28 01:16:27;;;;;;;19.65;3.40;;;5.50;99.90;;;;;;5055372;28;20056;-63
2022/01/28 01:19:15;;;;;;;16.60;3.60;;;5.40;99.90;;;;;;5055732;28;20068;-63
2022/01/28 01:21:42;;;;;;;16.15;3.50;;;5.60;99.90;;;;;;5056994;28;20045;-63
2022/01/28 01:24:11;;;;;;;16.25;3.20;;;5.50;99.90;;;;;;5056687;28;20076;-63
2022/01/28 01:26:39;;;;;;;15.07;2.97;;;5.50;99.90;;;;;;5038193;28;20479;-63
2022/01/28 01:29:09;;;;;;;12.63;2.53;;;5.50;99.90;;;;;;5071333;28;20037;-62
2022/01/28 01:31:39;;;;;;;14.20;3.30;;;5.50;99.90;;;;;;5056232;28;20402;-63
2022/01/28 01:34:26;;;;;;;13.70;2.35;;;;;;;;;;5056364;28;20040;-62
2022/01/28 01:36:51;;;;;;;16.20;4.32;;;5.40;99.90;;;;;;5054662;28;20403;-62
2022/01/28 01:39:26;;;;;;;12.23;2.72;;;;;;;;;;5038471;28;20037;-62
2022/01/28 01:42:00;;;;;;;14.73;2.90;;;5.30;99.90;;;;;;5056389;28;20041;-62
2022/01/28 01:44:50;;;;;;;14.18;2.78;;;5.30;99.90;;;;;;5054941;28;20059;-62
2022/01/28 01:52:55;;;;;;;19.40;3.55;;;5.10;99.90;;;;;;5055734;28;20045;-63
2022/01/28 01:55:20;;;;;;;20.02;3.33;;;5.10;99.90;;;;;;5054240;28;20044;-63
2022/01/28 01:57:46;;;;;;;21.15;3.40;;;5.00;99.90;;;;;;5053592;28;20487;-63
2022/01/28 02:00:15;;;;;;;18.17;3.75;;;5.20;99.90;;;;;;5054154;28;20037;-63
2022/01/28 02:02:41;;;;;;;19.17;3.28;;;5.00;99.90;;;;;;5070981;28;20037;-63
2022/01/28 02:05:07;;;;;;;13.60;2.47;;;5.10;99.90;;;;;;5055619;28;20052;-63
2022/01/28 02:07:33;;;;;;;20.30;2.55;;;;;;;;;;5053845;28;20052;-64
2022/01/28 02:09:58;;;;;;;17.80;4.85;;;4.90;99.90;;;;;;5055388;28;20045;-64
2022/01/28 02:12:24;;;;;;;14.60;3.25;;;4.90;99.90;;;;;;5055662;28;20399;-63
2022/01/28 02:14:50;;;;;;;12.63;2.80;;;5.00;99.90;;;;;;5075180;28;20044;-62
2022/01/28 02:17:15;;;;;;;18.35;2.85;;;5.00;99.90;;;;;;5058393;28;20036;-62
2022/01/28 02:19:41;;;;;;;16.73;3.95;;;5.00;99.90;;;;;;5075258;28;20036;-62
2022/01/28 02:22:07;;;;;;;10.93;2.50;;;4.90;99.90;;;;;;5058063;28;20383;-62
2022/01/28 02:24:43;;;;;;;16.98;3.05;;;;;;;;;;5075792;28;20478;-62
2022/01/28 02:27:11;;;;;;;14.73;3.42;;;5.00;99.90;;;;;;5040423;28;20048;-63
2022/01/28 02:29:37;;;;;;;17.63;3.03;;;;;;;;;;5057532;28;20123;-62
2022/01/28 02:32:07;;;;;;;13.18;2.90;;;4.60;99.90;;;;;;5075162;28;20044;-62
2022/01/28 02:34:37;;;;;;;15.70;3.85;;;4.70;99.90;;;;;;5057570;28;20041;-62
2022/01/28 02:37:03;;;;;;;12.30;2.83;;;4.70;99.90;;;;;;5057920;28;20039;-62
2022/01/28 02:39:29;;;;;;;22.55;3.00;;;4.60;99.90;;;;;;5057138;28;20043;-62
2022/01/28 02:42:03;;;;;;;10.15;2.53;;;4.60;99.90;;;;;;5057200;28;20406;-62
2022/01/28 02:44:50;;;;;;;22.02;3.30;;;4.70;99.90;;;;;;5057453;28;20048;-62
2022/01/28 02:47:28;;;;;;;16.60;3.33;;;4.60;99.90;;;;;;5057248;28;20080;-63
2022/01/28 02:49:54;;;;;;;13.45;3.97;;;;;;;;;;5075281;28;20049;-63
2022/01/28 02:52:29;;;;;;;16.17;3.33;;;4.50;99.90;;;;;;5041013;28;20040;-63
2022/01/28 02:54:54;;;;;;;14.40;3.15;;;4.60;99.90;;;;;;5055089;28;20041;-63
2022/01/28 02:57:25;;;;;;;21.45;3.80;;;4.60;99.90;;;;;;5054868;28;20475;-63
2022/01/28 02:59:51;;;;;;;18.10;3.67;;;4.60;99.90;;;;;;5054731;28;20045;-63
2022/01/28 03:02:18;;;;;;;23.95;3.95;;;4.60;99.90;;;;;;5054120;28;20036;-63
2022/01/28 03:07:09;;;;;;;20.55;4.15;;;4.70;99.90;;;;;;5037122;28;20053;-63
2022/01/28 03:13:02;;;;;;;30.27;4.75;;;4.80;99.90;;;;;;4958313;28;20058;-63
2022/01/28 03:15:23;;;;;;;23.52;3.97;;;4.80;99.90;;;;;;5031366;28;20049;-64
2022/01/28 03:18:06;;;;;;;15.30;3.30;;;;;;;;;;5053240;28;20049;-63
2022/01/28 03:20:39;;;;;;;23.92;4.10;;;5.00;99.90;;;;;;5037075;28;20049;-63
2022/01/28 03:23:05;;;;;;;28.48;6.05;;;;;;;;;;5054250;28;20124;-64
2022/01/28 03:25:31;;;;;;;23.08;4.78;;;4.80;99.90;;;;;;5036620;28;20045;-64
2022/01/28 03:27:59;;;;;;;22.67;4.53;;;4.80;99.90;;;;;;5036582;28;20574;-64
2022/01/28 03:30:24;;;;;;;26.08;4.43;;;5.10;99.90;;;;;;5053744;28;20037;-64
2022/01/28 03:32:50;;;;;;;22.88;3.65;;;5.00;99.90;;;;;;5054768;28;20094;-64
2022/01/28 03:35:18;;;;;;;23.23;3.50;;;5.10;99.90;;;;;;5054276;28;20041;-64
2022/01/28 03:37:44;;;;;;;17.52;3.13;;;4.90;99.90;;;;;;5053462;28;20037;-63
2022/01/28 03:40:11;;;;;;;23.52;4.47;;;4.90;99.90;;;;;;5038971;28;20396;-62
2022/01/28 03:42:37;;;;;;;18.95;4.10;;;4.70;99.90;;;;;;5040524;28;20395;-62
2022/01/28 03:45:05;;;;;;;22.15;4.60;;;4.80;99.90;;;;;;5041095;28;20542;-62
2022/01/28 03:47:31;;;;;;;20.23;3.85;;;4.80;99.90;;;;;;5040814;28;20048;-62
2022/01/28 03:49:56;;;;;;;15.90;3.08;;;4.70;99.90;;;;;;5057104;28;20652;-62
2022/01/28 03:52:22;;;;;;;16.55;2.95;;;;;;;;;;5056875;28;20072;-62
2022/01/28 03:54:49;;;;;;;17.90;3.60;;;4.60;99.90;;;;;;5059451;28;20040;-62
2022/01/28 03:57:14;;;;;;;18.33;3.55;;;4.80;99.90;;;;;;5060122;28;20090;-62
2022/01/28 03:59:40;;;;;;;15.10;3.17;;;4.60;99.90;;;;;;5059989;28;20045;-62
2022/01/28 04:02:07;;;;;;;30.50;4.50;;;;;;;;;;5078405;28;20045;-63
2022/01/28 04:12:33;;;;;;;22.63;3.88;;;4.50;99.90;;;;;;5060210;28;20044;-63
2022/01/28 04:17:24;;;;;;;17.85;4.90;;;4.40;99.90;;;;;;5078616;28;20475;-63
2022/01/28 04:19:51;;;;;;;23.65;3.85;;;4.40;99.90;;;;;;5078467;28;20094;-63
2022/01/28 04:22:19;;;;;;;18.58;3.75;;;4.40;99.90;;;;;;5059903;28;20076;-64
2022/01/28 04:24:44;;;;;;;24.63;4.75;;;4.40;99.90;;;;;;5076404;28;20052;-64
2022/01/28 04:27:10;;;;;;;14.48;2.95;;;4.40;99.90;;;;;;5077745;28;20037;-63
2022/01/28 04:29:35;;;;;;;26.15;4.53;;;4.40;99.90;;;;;;5077318;28;20066;-63
2022/01/28 04:32:01;;;;;;;18.45;3.47;;;4.50;99.90;;;;;;5059324;28;20063;-63
2022/01/28 04:34:27;;;;;;;22.90;5.15;;;4.50;99.90;;;;;;5078152;28;20047;-63
2022/01/28 04:39:30;;;;;;;26.13;3.88;;;;;;;;;;5059113;28;20051;-63
2022/01/28 04:42:19;;;;;;;22.67;4.55;;;4.70;99.90;;;;;;5078019;28;20399;-64
2022/01/28 04:44:57;;;;;;;21.27;4.53;;;4.70;99.90;;;;;;5076225;28;20124;-63
2022/01/28 04:47:43;;;;;;;20.13;4.35;;;4.80;99.90;;;;;;5075644;28;20076;-63
2022/01/28 04:50:25;;;;;;;20.30;3.88;;;4.80;99.90;;;;;;5059336;28;20048;-63
2022/01/28 04:58:28;;;;;;;24.58;4.20;;;4.80;99.90;;;;;;5078571;28;20123;-63
2022/01/28 05:01:15;;;;;;;17.50;3.45;;;4.90;99.90;;;;;;5059579;28;20041;-63
2022/01/28 05:04:00;;;;;;;24.55;4.15;;;4.90;99.90;;;;;;5055592;28;20155;-63
2022/01/28 05:07:08;;;;;;;28.15;4.20;;;;;;;;;;5051374;28;20048;-64
2022/01/28 05:10:05;;;;;;;30.90;4.47;;;5.00;99.90;;;;;;5053792;28;20048;-64
2022/01/28 05:15:16;;;;;;;20.90;5.80;;;5.00;99.90;;;;;;5053619;28;20139;-63
2022/01/28 05:28:17;;;;;;;23.40;3.88;;;5.10;99.90;;;;;;5055478;28;20052;-64
2022/01/28 05:30:43;;;;;;;28.15;4.97;;;5.10;99.90;;;;;;5059318;28;20051;-64
2022/01/28 05:33:08;;;;;;;21.08;4.60;;;5.00;99.90;;;;;;5072872;28;20395;-64
2022/01/28 05:35:34;;;;;;;18.80;4.03;;;5.10;99.90;;;;;;5054960;28;20052;-64
2022/01/28 05:38:00;;;;;;;27.40;5.05;;;;;;;;;;5072908;28;20037;-64
2022/01/28 05:40:25;;;;;;;17.63;4.03;;;4.90;99.90;;;;;;5055110;28;20094;-64
2022/01/28 05:42:51;;;;;;;22.20;4.18;;;4.90;99.90;;;;;;5055212;28;20045;-64
2022/01/28 05:45:17;;;;;;;25.30;4.50;;;4.80;99.90;;;;;;5072980;28;20127;-63
2022/01/28 05:47:42;;;;;;;21.88;4.30;;;4.80;99.90;;;;;;5085649;28;20028;-64
2022/01/28 05:50:08;;;;;;;21.27;4.25;;;4.80;99.90;;;;;;5093193;28;20085;-63
2022/01/28 05:52:34;;;;;;;28.23;5.75;;;;;;;;;;5043644;28;20046;-63
2022/01/28 05:55:00;;;;;;;27.77;5.68;;;;;;;;;;5082750;28;20109;-63
2022/01/28 05:57:26;;;;;;;19.20;4.43;;;;;;;;;;5039280;28;20119;-64
2022/01/28 05:59:52;;;;;;;33.55;4.70;;;;;;;;;;5076784;28;20032;-65
2022/01/28 06:02:18;;;;;;;23.10;5.13;;;4.80;99.90;;;;;;5078675;28;20055;-65
2022/01/28 06:04:44;;;;;;;23.23;5.55;;;4.70;99.90;;;;;;5074430;28;20044;-65
2022/01/28 06:07:10;;;;;;;18.58;5.43;;;;;;;;;;5049693;28;20075;-65
2022/01/28 06:09:36;;;;;;;23.90;4.13;;;4.80;99.90;;;;;;5069200;28;20109;-66
2022/01/28 06:12:02;;;;;;;28.30;5.03;;;;;;;;;;5072855;28;20036;-65
2022/01/28 06:14:28;;;;;;;20.20;4.80;;;;;;;;;;5067876;28;20052;-65
2022/01/28 06:16:54;;;;;;;22.25;4.68;;;;;;;;;;5085437;28;20101;-66
2022/01/28 06:19:20;;;;;;;21.73;4.65;;;4.80;99.90;;;;;;5067269;28;20036;-65
2022/01/28 06:21:46;;;;;;;21.67;4.55;;;;;;;;;;5086469;28;20461;-66
2022/01/28 06:24:12;;;;;;;21.60;5.20;;;;;;;;;;5067901;28;20056;-65
2022/01/28 06:26:38;;;;;;;23.50;4.45;;;;;;;;;;5085959;28;20101;-65
2022/01/28 06:29:03;;;;;;;21.92;4.38;;;4.60;99.90;;;;;;5087756;28;20047;-65
2022/01/28 06:31:29;;;;;;;19.10;4.70;;;;;;;;;;5073124;28;20040;-64
2022/01/28 06:33:55;;;;;;;19.00;4.00;;;;;;;;;;5093369;28;20084;-64
2022/01/28 06:36:21;;;;;;;21.10;3.58;;;4.40;99.90;;;;;;5075045;28;20055;-64
2022/01/28 06:38:48;;;;;;;20.27;5.63;;;;;;;;;;5075166;28;20044;-64
2022/01/28 06:41:13;;;;;;;23.10;4.03;;;4.20;99.90;;;;;;5075193;28;20521;-65
2022/01/28 06:43:39;;;;;;;17.10;3.63;;;4.20;99.90;;;;;;5075087;28;20106;-65
2022/01/28 06:46:05;;;;;;;19.50;3.50;;;4.10;99.90;;;;;;5093360;28;20090;-65
2022/01/28 06:48:31;;;;;;;22.75;4.00;;;4.10;99.90;;;;;;5075212;28;20044;-65
2022/01/28 06:50:56;;;;;;;20.83;3.60;;;4.10;99.90;;;;;;5087415;28;20040;-65
2022/01/28 06:53:22;;;;;;;14.70;3.67;;;4.10;99.90;;;;;;5065570;28;20477;-65
2022/01/28 06:55:47;;;;;;;17.30;4.07;;;3.90;99.90;;;;;;5074852;28;20048;-64
2022/01/28 06:58:13;;;;;;;20.83;3.70;;;3.80;99.90;;;;;;5087592;28;20037;-65
2022/01/28 07:00:40;;;;;;;23.25;4.05;;;3.80;99.90;;;;;;5072526;28;20461;-64
2022/01/28 07:03:07;;;;;;;17.60;4.28;;;3.80;99.90;;;;;;5065751;28;20510;-64
2022/01/28 07:05:32;;;;;;;22.70;3.67;;;3.70;99.90;;;;;;5066490;28;20047;-65
2022/01/28 07:07:59;;;;;;;16.38;3.10;;;;;;;;;;5061730;28;20045;-64
2022/01/28 07:10:24;;;;;;;16.33;3.40;;;3.60;99.90;;;;;;5052830;28;20387;-64
2022/01/28 07:12:53;;;;;;;17.17;3.15;;;3.60;99.90;;;;;;5052687;28;20060;-65
2022/01/28 07:15:18;;;;;;;12.60;3.80;;;3.60;99.90;;;;;;5054471;28;20124;-64
2022/01/28 07:17:44;;;;;;;20.30;3.80;;;;;;;;;;5073405;28;20068;-64
2022/01/28 07:20:10;;;;;;;20.48;3.50;;;3.50;99.90;;;;;;5056648;28;20052;-64
2022/01/28 07:22:36;;;;;;;23.45;4.28;;;3.50;99.90;;;;;;5053730;28;20044;-64
2022/01/28 07:25:01;;;;;;;22.00;3.50;;;3.50;99.90;;;;;;5066722;28;20112;-64
2022/01/28 07:27:27;;;;;;;18.75;4.53;;;3.50;99.90;;;;;;5060699;28;20174;-64
2022/01/28 07:29:53;;;;;;;19.90;3.67;;;;;;;;;;5073281;28;20068;-64
2022/01/28 07:32:19;;;;;;;16.98;4.28;;;3.60;99.90;;;;;;5070203;28;20121;-64
2022/01/28 07:34:46;;;;;;;14.63;3.15;;;3.60;99.90;;;;;;5065318;28;20175;-64
2022/01/28 07:37:12;;;;;;;17.45;4.07;;;;;;;;;;5063548;28;20398;-64
2022/01/28 07:39:38;;;;;;;17.85;4.10;;;3.60;99.90;;;;;;5055054;28;20036;-64
2022/01/28 07:42:04;;;;;;;19.30;4.13;;;3.50;99.90;;;;;;5082072;28;20041;-64
2022/01/28 07:44:29;;;;;;;13.50;3.30;;;;;;;;;;5050460;28;20071;-64
2022/01/28 07:46:55;;;;;;;23.25;3.45;;;3.30;99.90;;;;;;5064283;28;20170;-64
2022/01/28 07:49:21;;;;;;;17.85;3.72;;;;;;;;;;5073963;28;20048;-64
2022/01/28 07:51:48;;;;;;;31.02;5.82;;;3.30;99.90;;;;;;5037323;28;20044;-65
2022/01/28 07:54:14;;;;;;;15.77;3.78;;;3.30;99.90;;;;;;5066535;28;20033;-65
2022/01/28 07:56:39;;;;;;;14.73;2.90;;;3.50;99.90;;;;;;5050115;28;20051;-66
2022/01/28 07:59:05;;;;;;;14.32;4.45;;;3.40;99.90;;;;;;5064596;28;20044;-66
2022/01/28 08:01:31;;;;;;;15.00;3.13;;;;;;;;;;5057510;28;20123;-65
2022/01/28 08:03:57;;;;;;;18.67;4.28;;;3.30;99.90;;;;;;5077363;28;20136;-65
2022/01/28 08:06:25;;;;;;;15.32;3.42;;;;;;;;;;5079838;28;20115;-63
2022/01/28 08:08:52;;;;;;;15.52;3.95;;;3.40;99.90;;;;;;5067798;28;20046;-65
2022/01/28 08:11:18;;;;;;;24.92;4.38;;;;;;;;;;5083922;28;20044;-65
2022/01/28 08:13:44;;;;;;;21.63;4.30;;;;;;;;;;5073305;28;20048;-65
2022/01/28 08:16:09;;;;;;;20.45;3.50;;;3.70;99.90;;;;;;5081034;28;20060;-66
2022/01/28 08:18:35;;;;;;;17.27;3.95;;;;;;;;;;5080870;28;20518;-66
2022/01/28 08:21:01;;;;;;;21.25;4.50;;;3.80;99.90;;;;;;5066103;28;20044;-65
2022/01/28 08:23:27;;;;;;;19.25;3.50;;;;;;;;;;5067414;28;20043;-66
2022/01/28 08:25:54;;;;;;;16.95;3.70;;;3.90;99.90;;;;;;5068254;28;20044;-66
2022/01/28 08:28:19;;;;;;;19.88;3.70;;;4.00;99.90;;;;;;5063251;28;20043;-64
2022/01/28 08:30:45;;;;;;;17.50;3.95;;;;;;;;;;5080864;28;20481;-66
2022/01/28 08:33:11;;;;;;;12.02;3.20;;;;;;;;;;5053959;28;20124;-65
2022/01/28 08:35:39;;;;;;;15.02;4.28;;;5.10;99.90;;;;;;5059630;28;20126;-66
2022/01/28 08:38:13;;;;;;;15.32;3.13;;;5.00;99.90;;;;;;5056204;28;20080;-67
2022/01/28 08:40:40;;;;;;;13.68;3.70;;;;;;;;;;5064159;28;20044;-66
2022/01/28 08:43:06;;;;;;;21.58;4.22;;;;;;;;;;5070824;28;20052;-66
2022/01/28 08:45:31;;;;;;;18.13;3.85;;;5.00;99.90;;;;;;5056110;28;20037;-66
2022/01/28 08:47:57;;;;;;;28.60;4.43;;;;;;;;;;5051509;28;20454;-66
2022/01/28 08:50:23;;;;;;;21.88;4.00;;;;;;;;;;5069974;28;20043;-65
2022/01/28 08:52:49;;;;;;;19.42;4.13;;;5.40;99.90;;;;;;5080919;28;20037;-65
2022/01/28 08:55:15;;;;;;;26.48;5.47;;;5.60;99.90;;;;;;5074411;28;20061;-65
2022/01/28 08:57:43;;;;;;;19.50;4.28;;;;;;;;;;5058112;28;20437;-64
2022/01/28 09:00:18;;;;;;;16.23;3.67;;;5.90;99.90;;;;;;5061111;28;20036;-65
2022/01/28 09:02:44;;;;;;;14.48;3.85;;;;;;;;;;5064471;28;20047;-65
2022/01/28 09:05:10;;;;;;;18.25;4.03;;;;;;;;;;5073384;28;20044;-65
2022/01/28 09:07:36;;;;;;;19.10;4.65;;;;;;;;;;5060017;28;20714;-65
2022/01/28 09:10:10;;;;;;;20.60;3.65;;;;;;;;;;5076746;28;20170;-65
2022/01/28 09:12:46;;;;;;;23.13;5.50;;;;;;;;;;5079039;28;21191;-65
2022/01/28 09:15:12;;;;;;;20.15;3.85;;;;;;;;;;5081547;28;20067;-65
2022/01/28 09:17:38;;;;;;;18.73;3.80;;;;;;;;;;5075435;28;20055;-66
2022/01/28 09:20:05;;;;;;;27.77;5.47;;;7.50;99.90;;;;;;5083425;28;20436;-65
2022/01/28 09:22:31;;;;;;;15.40;3.92;;;;;;;;;;5062507;28;20051;-67
2022/01/28 09:24:58;;;;;;;28.08;5.45;;;7.70;99.90;;;;;;5083042;28;20055;-66
2022/01/28 09:27:24;;;;;;;23.80;4.95;;;;;;;;;;5061146;28;20405;-68
2022/01/28 09:29:49;;;;;;;24.98;5.78;;;8.10;99.90;;;;;;5065005;28;20040;-68
2022/01/28 09:32:16;;;;;;;19.08;3.75;;;;;;;;;;5083414;28;20042;-69
2022/01/28 09:34:43;;;;;;;19.20;4.40;;;;;;;;;;5065168;28;20051;-68
2022/01/28 09:37:09;;;;;;;18.10;3.67;;;8.00;99.90;;;;;;5080176;28;20045;-67
2022/01/28 09:39:39;;;;;;;16.40;3.67;;;;;;;;;;5066131;28;20046;-66
2022/01/28 09:42:11;;;;;;;28.67;4.35;;;7.90;99.90;;;;;;5061255;28;20443;-66
2022/01/28 09:44:39;;;;;;;27.58;4.38;;;7.80;99.90;;;;;;5079330;28;20501;-66
2022/01/28 09:47:05;;;;;;;19.48;4.57;;;7.70;99.90;;;;;;5081812;28;20442;-66
2022/01/28 09:49:31;;;;;;;22.75;4.97;;;7.60;99.90;;;;;;5060076;28;20041;-66
2022/01/28 09:51:58;;;;;;;23.75;4.10;;;7.50;99.90;;;;;;5065414;28;20043;-68
2022/01/28 09:54:24;;;;;;;26.55;4.80;;;7.50;99.90;;;;;;5063630;28;20036;-66
2022/01/28 09:56:50;;;;;;;21.38;4.07;;;;;;;;;;5054309;28;20417;-67
2022/01/28 09:59:16;;;;;;;17.65;4.43;;;;;;;;;;5064194;28;20036;-66
2022/01/28 10:01:52;;;;;;;19.30;4.18;;;7.30;99.90;;;;;;5060774;28;20387;-66
2022/01/28 10:04:19;;;;;;;24.40;5.05;;;;;;;;;;5077532;28;20119;-66
2022/01/28 10:06:46;;;;;;;19.02;4.22;;;7.30;99.90;;;;;;5057408;28;20058;-66
2022/01/28 10:09:15;;;;;;;19.63;3.80;;;7.50;99.90;;;;;;5075119;28;20382;-66
2022/01/28 10:11:43;;;;;;;23.33;4.22;;;7.50;99.90;;;;;;5056175;28;20469;-66
2022/01/28 10:14:22;;;;;;;18.63;3.92;;;;;;;;;;5071709;28;20549;-66
2022/01/28 10:17:08;;;;;;;17.75;4.40;;;9.00;99.90;;;;;;5060800;28;20043;-66
2022/01/28 10:19:39;;;;;;;21.23;5.03;;;9.80;99.90;;;;;;5048567;28;20057;-67
2022/01/28 10:22:17;;;;;;;26.73;4.53;;;10.20;99.90;;;;;;5064285;28;20041;-66
2022/01/28 10:24:43;;;;;;;22.60;5.05;;;;;;;;;;5057087;28;20115;-64
2022/01/28 10:27:09;;;;;;;22.00;4.47;;;10.20;99.90;;;;;;5069773;28;20127;-64
2022/01/28 10:29:43;;;;;;;26.20;5.20;;;9.90;99.90;;;;;;5050728;28;20084;-63
2022/01/28 10:32:17;;;;;;;18.30;4.57;;;9.80;99.90;;;;;;5059041;28;20064;-65
2022/01/28 10:34:47;;;;;;;21.83;5.07;;;9.60;99.90;;;;;;5055079;28;20127;-66
2022/01/28 10:37:16;;;;;;;20.70;5.20;;;9.30;99.90;;;;;;5049492;28;20076;-66
2022/01/28 10:40:03;;;;;;;20.00;3.92;;;9.30;99.90;;;;;;5051947;28;20114;-65
2022/01/28 10:42:34;;;;;;;23.70;4.25;;;9.10;99.90;;;;;;5059851;28;20486;-64
2022/01/28 10:45:10;;;;;;;17.25;3.67;;;9.20;99.90;;;;;;5052236;28;20425;-64
2022/01/28 10:47:41;;;;;;;20.65;5.50;;;8.90;99.90;;;;;;5049023;28;20055;-64
2022/01/28 10:50:28;;;;;;;20.65;4.32;;;8.90;99.90;;;;;;5052312;28;20091;-64
2022/01/28 10:53:09;;;;;;;17.63;4.68;;;9.00;99.90;;;;;;5055724;28;20052;-64
2022/01/28 10:55:40;;;;;;;30.35;5.82;;;9.00;99.90;;;;;;5054459;28;20052;-64
2022/01/28 10:58:11;;;;;;;20.40;4.88;;;9.00;99.90;;;;;;5055539;28;20037;-64
2022/01/28 11:00:42;;;;;;;22.48;4.93;;;9.10;99.90;;;;;;5034177;28;20516;-64
2022/01/28 11:03:11;;;;;;;19.10;4.43;;;9.10;99.90;;;;;;5053393;28;20057;-64
2022/01/28 11:05:38;;;;;;;23.50;5.07;;;9.10;99.90;;;;;;5056639;28;20084;-64
2022/01/28 11:08:07;;;;;;;22.88;5.05;;;8.90;99.90;;;;;;5053408;28;20755;-64
2022/01/28 11:10:33;;;;;;;17.80;3.90;;;9.10;99.90;;;;;;5054158;28;20048;-63
2022/01/28 11:12:59;;;;;;;23.50;4.32;;;9.10;99.90;;;;;;5054416;28;20065;-63
2022/01/28 11:15:25;;;;;;;22.60;5.28;;;9.10;99.90;;;;;;5069081;28;20041;-64
2022/01/28 11:17:52;;;;;;;24.23;3.97;;;9.40;99.90;;;;;;5057089;28;20033;-64
2022/01/28 11:20:22;;;;;;;21.58;4.78;;;9.40;99.90;;;;;;5079626;28;20036;-64
2022/01/28 11:23:21;;;;;;;17.92;3.85;;;9.60;99.90;;;;;;5048390;28;20045;-64
2022/01/28 11:26:16;;;;;;;22.00;3.88;;;9.60;99.90;;;;;;5069226;28;20044;-64
2022/01/28 11:28:46;;;;;;;23.42;5.50;;;9.60;99.90;;;;;;5069034;28;20040;-63
2022/01/28 11:31:12;;;;;;;17.88;4.63;;;9.60;99.90;;;;;;5055735;28;20052;-63
2022/01/28 11:33:49;;;;;;;23.02;5.38;;;9.60;99.90;;;;;;5055703;28;20040;-64
2022/01/28 11:36:35;;;;;;;23.95;5.65;;;9.60;99.90;;;;;;5056659;28;20044;-63
2022/01/28 11:39:17;;;;;;;22.45;5.85;;;9.60;99.90;;;;;;5068028;28;20033;-63
2022/01/28 11:42:06;;;;;;;23.25;6.22;;;9.50;99.90;;;;;;5054388;28;20052;-62
2022/01/28 11:44:50;;;;;;;20.58;4.35;;;9.40;99.90;;;;;;5069211;28;20032;-62
2022/01/28 11:47:25;;;;;;;25.23;4.90;;;;;;;;;;5054542;28;20047;-62
2022/01/28 11:50:11;;;;;;;28.42;6.07;;;9.10;99.90;;;;;;5054741;28;20067;-62
2022/01/28 11:52:50;;;;;;;19.63;4.70;;;9.20;99.90;;;;;;5067685;28;20497;-62
2022/01/28 11:55:23;;;;;;;23.67;4.82;;;8.70;99.90;;;;;;5060433;28;20124;-62
2022/01/28 11:58:10;;;;;;;17.70;3.92;;;8.70;99.90;;;;;;5076014;28;20111;-62
2022/01/28 12:00:38;;;;;;;23.73;4.45;;;9.20;99.90;;;;;;5077767;28;20033;-63
2022/01/28 12:03:23;;;;;;;23.30;3.90;;;9.90;99.90;;;;;;5063951;28;20037;-64
2022/01/28 12:05:57;;;;;;;14.40;3.40;;;10.00;99.90;;;;;;5085444;28;20040;-64
2022/01/28 12:08:27;;;;;;;19.45;3.60;;;9.60;99.90;;;;;;5081679;28;20431;-64
2022/01/28 12:10:54;;;;;;;23.42;3.60;;;9.60;99.90;;;;;;5061669;28;20051;-63
2022/01/28 12:13:32;;;;;;;20.95;4.32;;;9.60;99.90;;;;;;5082265;28;20072;-62
2022/01/28 12:16:11;;;;;;;19.85;3.72;;;10.20;99.90;;;;;;5063869;28;20446;-63
2022/01/28 12:18:52;;;;;;;17.92;4.40;;;10.70;99.90;;;;;;5076626;28;20036;-63
2022/01/28 12:21:24;;;;;;;21.52;3.75;;;10.60;99.90;;;;;;5062134;28;20040;-64
2022/01/28 12:23:52;;;;;;;18.15;3.38;;;10.70;99.90;;;;;;5064601;28;20043;-63
2022/01/28 12:26:19;;;;;;;18.30;3.17;;;11.10;99.90;;;;;;5083897;28;20102;-63
2022/01/28 12:28:48;;;;;;;18.55;3.88;;;11.50;99.90;;;;;;5083358;28;20037;-63
2022/01/28 12:31:17;;;;;;;23.67;4.07;;;11.80;99.90;;;;;;5064864;28;20478;-65
2022/01/28 12:33:48;;;;;;;17.27;3.40;;;12.10;99.90;;;;;;5083945;28;20036;-64
2022/01/28 12:36:16;;;;;;;17.10;3.05;;;12.30;99.90;;;;;;5080896;28;20032;-64
2022/01/28 12:41:41;;;;;;;18.08;4.70;;;11.80;99.90;;;;;;5060593;28;20040;-64
2022/01/28 12:44:09;;;;;;;22.02;3.72;;;11.50;99.90;;;;;;5063037;28;20051;-63
2022/01/28 12:46:37;;;;;;;19.85;3.92;;;11.70;99.90;;;;;;5086302;28;20047;-63
2022/01/28 12:49:03;;;;;;;14.30;3.60;;;11.60;99.90;;;;;;5080512;28;20090;-63
2022/01/28 12:51:29;;;;;;;22.02;3.95;;;;;;;;;;5063034;28;20040;-63
2022/01/28 12:53:55;;;;;;;20.40;3.95;;;11.20;99.90;;;;;;5065491;28;20051;-63
2022/01/28 12:56:43;;;;;;;22.08;4.20;;;11.10;99.90;;;;;;5064415;28;20059;-64
2022/01/28 12:59:10;;;;;;;22.02;3.85;;;;;;;;;;5066078;28;20036;-63
2022/01/28 13:01:37;;;;;;;19.05;4.00;;;;;;;;;;5063878;28;20046;-63
2022/01/28 13:04:12;;;;;;;19.15;3.53;;;11.30;99.90;;;;;;5059905;28;20047;-65
2022/01/28 13:09:32;;;;;;;20.15;3.08;;;12.90;99.90;;;;;;5053594;28;20184;-66
2022/01/28 13:12:01;;;;;;;17.50;3.22;;;13.30;99.90;;;;;;5063824;28;20093;-65
2022/01/28 13:14:27;;;;;;;16.88;3.10;;;;;;;;;;5065152;28;20098;-65
2022/01/28 13:16:53;;;;;;;17.35;3.13;;;12.10;99.90;;;;;;5084558;28;20450;-65
2022/01/28 13:19:19;;;;;;;22.85;3.70;;;11.70;99.90;;;;;;5078606;28;20042;-64
2022/01/28 13:21:47;;;;;;;25.10;4.63;;;11.70;99.90;;;;;;5078172;28;20516;-64
2022/01/28 13:24:18;;;;;;;18.30;3.65;;;11.40;99.90;;;;;;5077123;28;20040;-65
2022/01/28 13:27:05;;;;;;;16.67;3.63;;;11.10;99.90;;;;;;5078230;28;20044;-65
2022/01/28 13:29:34;;;;;;;15.77;3.35;;;10.90;99.90;;;;;;5053480;28;20144;-64
2022/01/28 13:32:02;;;;;;;16.60;3.25;;;10.80;99.90;;;;;;5072593;28;20032;-65
2022/01/28 13:34:28;;;;;;;15.57;2.83;;;11.00;99.90;;;;;;5073608;28;20036;-66
2022/01/28 13:36:57;;;;;;;13.23;2.78;;;11.00;99.90;;;;;;5071918;28;20085;-65
2022/01/28 13:39:27;;;;;;;18.05;3.38;;;11.10;99.90;;;;;;5054064;28;20072;-65
2022/01/28 13:42:12;;;;;;;15.98;3.60;;;11.20;99.90;;;;;;5070868;28;20032;-66
2022/01/28 13:44:41;;;;;;;14.90;3.30;;;11.30;99.90;;;;;;5054274;28;20037;-66
2022/01/28 13:47:09;;;;;;;14.45;3.33;;;11.20;99.90;;;;;;5071682;28;20042;-66
2022/01/28 13:49:36;;;;;;;15.52;2.67;;;10.90;99.90;;;;;;5052749;28;20036;-66
2022/01/28 13:52:14;;;;;;;16.13;2.83;;;10.80;99.90;;;;;;5066515;28;20090;-66
2022/01/28 13:54:39;;;;;;;13.68;2.45;;;10.60;99.90;;;;;;5052993;28;20098;-66
2022/01/28 13:57:07;;;;;;;16.25;2.60;;;10.40;99.90;;;;;;5060319;28;20040;-66
2022/01/28 13:59:34;;;;;;;16.95;3.00;;;10.00;99.90;;;;;;5065770;28;20041;-66
2022/01/28 14:02:00;;;;;;;15.25;3.15;;;9.80;99.90;;;;;;5051493;28;20395;-66
2022/01/28 14:04:47;;;;;;;14.48;2.88;;;9.80;99.90;;;;;;5052428;28;20044;-66
2022/01/28 14:07:17;;;;;;;19.08;2.60;;;9.70;99.90;;;;;;5065803;28;20482;-66
2022/01/28 14:09:56;;;;;;;17.63;2.85;;;9.60;99.90;;;;;;5050528;28;20402;-66
2022/01/28 14:15:25;;;;;;;18.70;2.78;;;9.30;99.90;;;;;;5066020;28;20054;-65
2022/01/28 14:17:51;;;;;;;15.50;2.72;;;9.30;99.90;;;;;;5049320;28;20053;-65
2022/01/28 14:20:16;;;;;;;16.67;5.03;;;9.20;99.90;;;;;;5066102;28;20051;-64
2022/01/28 14:22:42;;;;;;;18.63;2.85;;;;;;;;;;5080276;28;20052;-64
2022/01/28 14:25:08;;;;;;;18.45;2.92;;;9.10;99.90;;;;;;5081290;28;20040;-65
2022/01/28 14:30:16;;;;;;;17.02;3.65;;;9.00;99.90;;;;;;5079094;28;20063;-66
2022/01/28 14:32:42;;;;;;;22.15;3.10;;;8.90;99.90;;;;;;5058189;28;20403;-66
2022/01/28 14:35:08;;;;;;;14.75;2.80;;;8.90;99.90;;;;;;5075603;28;20042;-65